| time (UTC) | temp C | wind direction | speed KPH | gust KPH | rain 1hr cm | rain 24hr cm | rain mn cm | humidity % | barometer mb |
| 20260507092619 | 24 | 315 | 1.6 | 0.0 | 0.00 | 0.00 | 0.00 | 33 | 1007.0 |
| 20260507091619 | 25 | 315 | 0.0 | 0.0 | 0.00 | 0.00 | 0.00 | 33 | 1007.0 |
| 20260507090619 | 25 | 315 | 0.0 | 3.2 | 0.00 | 0.00 | 0.00 | 32 | 1007.0 |
| 20260507085619 | 25 | 270 | 1.6 | 1.6 | 0.00 | 0.00 | 0.00 | 32 | 1007.0 |
| 20260507084620 | 26 | 231 | 0.0 | 0.0 | 0.00 | 0.00 | 0.00 | 31 | 1007.0 |
| 20260507083618 | 26 | 225 | 1.6 | 3.2 | 0.00 | 0.00 | 0.00 | 31 | 1007.0 |
| 20260507082618 | 26 | 315 | 0.0 | 0.0 | 0.00 | 0.00 | 0.00 | 31 | 1007.0 |
| 20260507081618 | 26 | 315 | 1.6 | 4.8 | 0.00 | 0.00 | 0.00 | 31 | 1007.0 |
| 20260507080618 | 26 | 315 | 0.0 | 0.0 | 0.00 | 0.00 | 0.00 | 30 | 1007.0 |
| 20260507075618 | 26 | 315 | 3.2 | 4.8 | 0.00 | 0.00 | 0.00 | 30 | 1007.0 |
| 20260507074619 | 27 | 315 | 3.2 | 8.0 | 0.00 | 0.00 | 0.00 | 30 | 1007.0 |
| 20260507073619 | 27 | 329 | 4.8 | 4.8 | 0.00 | 0.00 | 0.00 | 30 | 1007.0 |
| 20260507072619 | 27 | 315 | 3.2 | 4.8 | 0.00 | 0.00 | 0.00 | 30 | 1007.0 |
| 20260507071620 | 27 | 315 | 4.8 | 4.8 | 0.00 | 0.00 | 0.00 | 30 | 1007.0 |
| 20260507070619 | 27 | 329 | 1.6 | 9.7 | 0.00 | 0.00 | 0.00 | 30 | 1007.0 |
| 20260507065620 | 27 | 315 | 1.6 | 4.8 | 0.00 | 0.00 | 0.00 | 30 | 1007.0 |
| 20260507064618 | 27 | 315 | 3.2 | 11.3 | 0.00 | 0.00 | 0.00 | 29 | 1007.0 |
| 20260507063618 | 27 | 315 | 3.2 | 11.3 | 0.00 | 0.00 | 0.00 | 29 | 1007.0 |
| 20260507062618 | 27 | 315 | 9.7 | 19.3 | 0.00 | 0.00 | 0.00 | 29 | 1007.0 |
| 20260507061618 | 27 | 315 | 4.8 | 9.7 | 0.00 | 0.00 | 0.00 | 27 | 1007.0 |
| 20260507060618 | 28 | 315 | 4.8 | 4.8 | 0.00 | 0.00 | 0.00 | 26 | 1007.0 |
| 20260507055619 | 29 | 225 | 0.0 | 0.0 | 0.00 | 0.00 | 0.00 | 25 | 1007.0 |
| 20260507054620 | 28 | 296 | 0.0 | 3.2 | 0.00 | 0.00 | 0.00 | 23 | 1008.0 |
| 20260507053620 | 27 | 187 | 11.3 | 16.1 | 0.00 | 0.00 | 0.00 | 24 | 1006.0 |
| 20260507052620 | 27 | 197 | 8.0 | 22.5 | 0.00 | 0.00 | 0.00 | 24 | 1006.0 |
| 20260507051619 | 27 | 195 | 11.3 | 12.9 | 0.00 | 0.00 | 0.00 | 24 | 1007.0 |
| 20260507050619 | 27 | 199 | 8.0 | 9.7 | 0.00 | 0.00 | 0.00 | 26 | 1007.0 |
| 20260507045618 | 27 | 202 | 11.3 | 14.5 | 0.00 | 0.00 | 0.00 | 25 | 1007.0 |
| 20260507044618 | 27 | 192 | 8.0 | 12.9 | 0.00 | 0.00 | 0.00 | 27 | 1007.0 |
| 20260507043618 | 26 | 193 | 14.5 | 16.1 | 0.00 | 0.00 | 0.00 | 27 | 1008.0 |
| 20260507042618 | 27 | 180 | 9.7 | 12.9 | 0.00 | 0.00 | 0.00 | 27 | 1008.0 |
| 20260507041618 | 27 | 186 | 12.9 | 16.1 | 0.00 | 0.00 | 0.00 | 27 | 1008.0 |
| 20260507040618 | 27 | 191 | 11.3 | 9.7 | 0.00 | 0.00 | 0.00 | 27 | 1008.0 |
| 20260507035618 | 27 | 180 | 12.9 | 20.9 | 0.00 | 0.00 | 0.00 | 27 | 1008.0 |
| 20260507034619 | 27 | 189 | 11.3 | 12.9 | 0.00 | 0.00 | 0.00 | 26 | 1009.0 |
| 20260507033619 | 27 | 181 | 11.3 | 14.5 | 0.00 | 0.00 | 0.00 | 26 | 1009.0 |
| 20260507032618 | 27 | 207 | 9.7 | 12.9 | 0.00 | 0.00 | 0.00 | 28 | 1009.0 |
| 20260507031620 | 26 | 197 | 9.7 | 12.9 | 0.00 | 0.00 | 0.00 | 30 | 1009.0 |
| 20260507030620 | 26 | 189 | 9.7 | 11.3 | 0.00 | 0.00 | 0.00 | 29 | 1009.0 |
| 20260507025620 | 26 | 192 | 4.8 | 8.0 | 0.00 | 0.00 | 0.00 | 30 | 1009.0 |
| 20260507024618 | 27 | 180 | 8.0 | 14.5 | 0.00 | 0.00 | 0.00 | 29 | 1009.0 |
| 20260507023618 | 27 | 209 | 3.2 | 11.3 | 0.00 | 0.00 | 0.00 | 29 | 1009.0 |
| 20260507022620 | 27 | 199 | 8.0 | 9.7 | 0.00 | 0.00 | 0.00 | 28 | 1009.0 |
| 20260507021618 | 27 | 180 | 3.2 | 8.0 | 0.00 | 0.00 | 0.00 | 27 | 1009.0 |
| 20260507020618 | 27 | 188 | 4.8 | 8.0 | 0.00 | 0.00 | 0.00 | 28 | 1009.0 |
| 20260507015619 | 26 | 193 | 1.6 | 3.2 | 0.00 | 0.00 | 0.00 | 30 | 1009.0 |
| 20260507014619 | 26 | 235 | 1.6 | 3.2 | 0.00 | 0.00 | 0.00 | 30 | 1010.0 |
| 20260507013619 | 25 | 199 | 9.7 | 9.7 | 0.00 | 0.00 | 0.00 | 30 | 1010.0 |
| 20260507012619 | 26 | 180 | 3.2 | 8.0 | 0.00 | 0.00 | 0.00 | 30 | 1010.0 |
| 20260507011619 | 25 | 180 | 4.8 | 8.0 | 0.00 | 0.00 | 0.00 | 29 | 1010.0 |
| 20260507010619 | 28 | 258 | 3.2 | 4.8 | 0.00 | 0.00 | 0.00 | 24 | 1010.0 |
| 20260507005619 | 28 | 0 | 0.0 | 0.0 | 0.00 | 0.00 | 0.00 | 29 | 1010.0 |
| 20260507004619 | 26 | 180 | 0.0 | 0.0 | 0.00 | 0.00 | 0.00 | 31 | 1010.0 |
| 20260507003619 | 25 | 180 | 1.6 | 3.2 | 0.00 | 0.00 | 0.00 | 32 | 1010.0 |
| 20260507002620 | 23 | 180 | 0.0 | 1.6 | 0.00 | 0.00 | 0.00 | 33 | 1010.0 |
| 20260507001618 | 23 | 0 | 0.0 | 1.6 | 0.00 | 0.00 | 0.00 | 34 | 1010.0 |
| 20260507000619 | 23 | 180 | 0.0 | 0.0 | 0.00 | 0.00 | 0.00 | 34 | 1010.0 |
| 20260506235620 | 23 | 180 | 0.0 | 0.0 | 0.00 | 0.00 | 0.00 | 33 | 1010.0 |
| 20260506234620 | 23 | 180 | 0.0 | 0.0 | 0.00 | 0.00 | 0.00 | 34 | 1010.0 |
| 20260506233620 | 23 | 180 | 0.0 | 0.0 | 0.00 | 0.00 | 0.00 | 37 | 1010.0 |
| 20260506232619 | 21 | 180 | 0.0 | 0.0 | 0.00 | 0.00 | 0.00 | 46 | 1010.0 |
| 20260506231619 | 19 | 180 | 0.0 | 0.0 | 0.00 | 0.00 | 0.00 | 50 | 1010.0 |
| 20260506230620 | 18 | 180 | 0.0 | 0.0 | 0.00 | 0.00 | 0.00 | 50 | 1010.0 |
| 20260506225620 | 17 | 180 | 0.0 | 0.0 | 0.00 | 0.00 | 0.00 | 51 | 1010.0 |
| 20260506224618 | 17 | 198 | 1.6 | 3.2 | 0.00 | 0.00 | 0.00 | 53 | 1010.0 |
| 20260506223618 | 17 | 180 | 1.6 | 0.0 | 0.00 | 0.00 | 0.00 | 54 | 1010.0 |
| 20260506222619 | 17 | 270 | 0.0 | 0.0 | 0.00 | 0.00 | 0.00 | 57 | 1010.0 |
| 20260506221618 | 16 | 270 | 0.0 | 0.0 | 0.00 | 0.00 | 0.00 | 58 | 1010.0 |
| 20260506220620 | 16 | 270 | 0.0 | 0.0 | 0.00 | 0.00 | 0.00 | 59 | 1010.0 |
| 20260506215620 | 16 | 180 | 0.0 | 0.0 | 0.00 | 0.00 | 0.00 | 60 | 1010.0 |
| 20260506214618 | 16 | 180 | 0.0 | 0.0 | 0.00 | 0.00 | 0.00 | 60 | 1010.0 |
| 20260506213620 | 16 | 180 | 0.0 | 0.0 | 0.00 | 0.00 | 0.00 | 61 | 1010.0 |
| 20260506212619 | 15 | 180 | 0.0 | 0.0 | 0.00 | 0.00 | 0.00 | 62 | 1010.0 |
| 20260506211619 | 15 | 180 | 0.0 | 0.0 | 0.00 | 0.00 | 0.00 | 62 | 1009.0 |
| 20260506210619 | 15 | 315 | 0.0 | 0.0 | 0.00 | 0.00 | 0.00 | 61 | 1010.0 |
| 20260506205619 | 15 | 315 | 0.0 | 0.0 | 0.00 | 0.00 | 0.00 | 62 | 1010.0 |
| 20260506204620 | 14 | 315 | 0.0 | 0.0 | 0.00 | 0.00 | 0.00 | 61 | 1009.0 |
| 20260506203620 | 14 | 315 | 0.0 | 0.0 | 0.00 | 0.00 | 0.00 | 61 | 1009.0 |
| 20260506202619 | 14 | 315 | 0.0 | 0.0 | 0.00 | 0.00 | 0.00 | 61 | 1009.0 |
| 20260506201619 | 14 | 315 | 0.0 | 0.0 | 0.00 | 0.00 | 0.00 | 61 | 1010.0 |
| 20260506200619 | 14 | 315 | 0.0 | 0.0 | 0.00 | 0.00 | 0.00 | 61 | 1010.0 |
| 20260506195619 | 13 | 315 | 0.0 | 0.0 | 0.00 | 0.00 | 0.00 | 61 | 1010.0 |
| 20260506194619 | 13 | 315 | 0.0 | 0.0 | 0.00 | 0.00 | 0.00 | 61 | 1009.0 |
| 20260506193619 | 13 | 315 | 0.0 | 0.0 | 0.00 | 0.00 | 0.00 | 60 | 1009.0 |
| 20260506192620 | 13 | 315 | 0.0 | 0.0 | 0.00 | 0.00 | 0.00 | 60 | 1009.0 |
| 20260506191619 | 13 | 315 | 0.0 | 0.0 | 0.00 | 0.00 | 0.00 | 60 | 1009.0 |
| 20260506190619 | 13 | 315 | 0.0 | 0.0 | 0.00 | 0.00 | 0.00 | 59 | 1009.0 |
| 20260506185620 | 13 | 315 | 0.0 | 0.0 | 0.00 | 0.00 | 0.00 | 59 | 1009.0 |
| 20260506184620 | 13 | 315 | 0.0 | 0.0 | 0.00 | 0.00 | 0.00 | 58 | 1009.0 |
| 20260506183620 | 13 | 315 | 0.0 | 0.0 | 0.00 | 0.00 | 0.00 | 58 | 1009.0 |
| 20260506182618 | 13 | 315 | 0.0 | 0.0 | 0.00 | 0.00 | 0.00 | 57 | 1009.0 |
| 20260506181618 | 13 | 315 | 0.0 | 0.0 | 0.00 | 0.00 | 0.00 | 57 | 1010.0 |
| 20260506180619 | 13 | 315 | 0.0 | 0.0 | 0.00 | 0.00 | 0.00 | 56 | 1010.0 |
| 20260506175619 | 13 | 315 | 0.0 | 0.0 | 0.00 | 0.00 | 0.00 | 56 | 1010.0 |
| 20260506174619 | 13 | 315 | 0.0 | 0.0 | 0.00 | 0.00 | 0.00 | 55 | 1010.0 |
| 20260506173619 | 13 | 315 | 0.0 | 0.0 | 0.00 | 0.00 | 0.00 | 55 | 1010.0 |
| 20260506172619 | 14 | 315 | 0.0 | 0.0 | 0.00 | 0.00 | 0.00 | 55 | 1010.0 |
| 20260506171620 | 14 | 315 | 0.0 | 0.0 | 0.00 | 0.00 | 0.00 | 54 | 1010.0 |
| 20260506170620 | 14 | 315 | 0.0 | 0.0 | 0.00 | 0.00 | 0.00 | 54 | 1010.0 |
| 20260506165620 | 14 | 315 | 0.0 | 0.0 | 0.00 | 0.00 | 0.00 | 53 | 1010.0 |
| 20260506164620 | 14 | 315 | 0.0 | 0.0 | 0.00 | 0.00 | 0.00 | 53 | 1011.0 |
| 20260506163620 | 15 | 315 | 0.0 | 0.0 | 0.00 | 0.00 | 0.00 | 53 | 1011.0 |
| 20260506162620 | 15 | 315 | 0.0 | 0.0 | 0.00 | 0.00 | 0.00 | 52 | 1011.0 |
| 20260506161620 | 15 | 315 | 0.0 | 0.0 | 0.00 | 0.00 | 0.00 | 52 | 1011.0 |
| 20260506160620 | 15 | 315 | 0.0 | 0.0 | 0.00 | 0.00 | 0.00 | 52 | 1011.0 |
| 20260506155618 | 15 | 315 | 0.0 | 0.0 | 0.00 | 0.00 | 0.00 | 51 | 1011.0 |
| 20260506154619 | 15 | 315 | 0.0 | 0.0 | 0.00 | 0.00 | 0.00 | 51 | 1011.0 |
| 20260506153619 | 15 | 315 | 0.0 | 0.0 | 0.00 | 0.00 | 0.00 | 51 | 1011.0 |
| 20260506152619 | 15 | 315 | 0.0 | 0.0 | 0.00 | 0.00 | 0.00 | 50 | 1011.0 |
| 20260506151619 | 15 | 315 | 0.0 | 0.0 | 0.00 | 0.00 | 0.00 | 49 | 1011.0 |
| 20260506150619 | 15 | 315 | 0.0 | 0.0 | 0.00 | 0.00 | 0.00 | 49 | 1011.0 |
| 20260506145619 | 15 | 315 | 0.0 | 0.0 | 0.00 | 0.00 | 0.00 | 48 | 1011.0 |
| 20260506144620 | 16 | 315 | 0.0 | 0.0 | 0.00 | 0.00 | 0.00 | 48 | 1011.0 |
| 20260506143620 | 16 | 315 | 0.0 | 0.0 | 0.00 | 0.00 | 0.00 | 47 | 1011.0 |
| 20260506142620 | 16 | 280 | 0.0 | 0.0 | 0.00 | 0.00 | 0.00 | 46 | 1011.0 |
| 20260506141620 | 16 | 315 | 1.6 | 1.6 | 0.00 | 0.00 | 0.00 | 45 | 1010.0 |
| 20260506140620 | 16 | 315 | 1.6 | 1.6 | 0.00 | 0.00 | 0.00 | 45 | 1011.0 |
| 20260506135618 | 16 | 315 | 1.6 | 1.6 | 0.00 | 0.00 | 0.00 | 45 | 1011.0 |
| 20260506134619 | 17 | 315 | 1.6 | 1.6 | 0.00 | 0.00 | 0.00 | 44 | 1011.0 |
| 20260506133619 | 17 | 315 | 0.0 | 1.6 | 0.00 | 0.00 | 0.00 | 44 | 1012.0 |
| 20260506132620 | 17 | 315 | 0.0 | 0.0 | 0.00 | 0.00 | 0.00 | 43 | 1012.0 |
| 20260506131619 | 17 | 315 | 0.0 | 0.0 | 0.00 | 0.00 | 0.00 | 42 | 1012.0 |
| 20260506130619 | 17 | 315 | 1.6 | 3.2 | 0.00 | 0.00 | 0.00 | 41 | 1012.0 |
| 20260506125620 | 17 | 315 | 0.0 | 1.6 | 0.00 | 0.00 | 0.00 | 41 | 1012.0 |
| 20260506124619 | 17 | 315 | 0.0 | 0.0 | 0.00 | 0.00 | 0.00 | 40 | 1012.0 |
| 20260506123619 | 17 | 315 | 1.6 | 1.6 | 0.00 | 0.00 | 0.00 | 40 | 1012.0 |
| 20260506122619 | 18 | 315 | 3.2 | 3.2 | 0.00 | 0.00 | 0.00 | 39 | 1012.0 |
| 20260506121619 | 18 | 315 | 0.0 | 0.0 | 0.00 | 0.00 | 0.00 | 38 | 1011.0 |
| 20260506120619 | 18 | 315 | 0.0 | 0.0 | 0.00 | 0.00 | 0.00 | 37 | 1011.0 |
| 20260506115619 | 18 | 315 | 3.2 | 1.6 | 0.00 | 0.00 | 0.00 | 37 | 1011.0 |
| 20260506114619 | 18 | 315 | 0.0 | 0.0 | 0.00 | 0.00 | 0.00 | 37 | 1011.0 |
| 20260506113619 | 18 | 315 | 0.0 | 0.0 | 0.00 | 0.00 | 0.00 | 36 | 1010.0 |
| 20260506112619 | 19 | 315 | 3.2 | 3.2 | 0.00 | 0.00 | 0.00 | 36 | 1010.0 |
| 20260506111619 | 19 | 315 | 1.6 | 3.2 | 0.00 | 0.00 | 0.00 | 35 | 1011.0 |
| 20260506110619 | 19 | 315 | 1.6 | 3.2 | 0.00 | 0.00 | 0.00 | 35 | 1011.0 |
| 20260506105620 | 19 | 315 | 1.6 | 8.0 | 0.00 | 0.00 | 0.00 | 34 | 1011.0 |
| 20260506104619 | 20 | 315 | 3.2 | 0.0 | 0.00 | 0.00 | 0.00 | 33 | 1011.0 |
| 20260506103619 | 20 | 315 | 3.2 | 0.0 | 0.00 | 0.00 | 0.00 | 33 | 1012.0 |
| 20260506102619 | 20 | 315 | 3.2 | 0.0 | 0.00 | 0.00 | 0.00 | 33 | 1012.0 |
| 20260506101619 | 21 | 315 | 3.2 | 8.0 | 0.00 | 0.00 | 0.00 | 32 | 1011.0 |
| 20260506100619 | 21 | 315 | 4.8 | 8.0 | 0.00 | 0.00 | 0.00 | 31 | 1010.0 |
| 20260506095620 | 21 | 315 | 3.2 | 8.0 | 0.00 | 0.00 | 0.00 | 29 | 1010.0 |
| 20260506094619 | 22 | 315 | 3.2 | 4.8 | 0.00 | 0.00 | 0.00 | 27 | 1010.0 |
| 20260506093620 | 22 | 315 | 1.6 | 8.0 | 0.00 | 0.00 | 0.00 | 26 | 1011.0 |